AirNav   Air Wisconsin pilot careers
 
 1134 users online  

KGDY Grundy Municipal Airport
Grundy, Virginia, USA

GOING TO GRUNDY?


FAA INFORMATION EFFECTIVE 19 JULY 2018

Location

FAA Identifier: GDY
Lat/Long: 37-13-56.6150N / 082-07-29.9880W
37-13.943583N / 082-07.499800W
37.2323931 / -82.1249967
(estimated)
Elevation: 2304 ft. / 702.3 m (surveyed)
Variation: 06W (2000)
From city: 3 miles SW of GRUNDY, VA
Time zone: UTC -4 (UTC -5 during Standard Time)
Zip code: 24656

Airport Operations

Airport use: Open to the public
Control tower: no
ARTCC: INDIANAPOLIS CENTER
FSS: LEESBURG FLIGHT SERVICE STATION
NOTAMs facility: DCA (NOTAM-D service available)
Attendance: UNATNDD
Wind indicator: yes
Segmented circle: no
Lights: ACTVT MIRL RY 04/22 - CTAF; HIGH INTSTY ONLY.
Beacon: white-green (lighted land airport)
Operates sunset to sunrise.

Airport Communications

CTAF/UNICOM: 123.0
WX AWOS-3 at JFZ (19 nm SE): 118.075 (276-596-9927)
  • APCH/DEP SERVICE PRVDD BY INDIANAPOLIS ARTCC ON FREQS 126.575/257.850 (LYNCH RCAG).

Nearby radio navigation aids

VOR radial/distance  VOR name  Freq  Var
GZGr357/24.5GLADE SPRING VOR/DME110.2002W

Airport Services

Parking: tiedowns
Airframe service: NONE
Powerplant service: NONE
Bottled oxygen: NONE
Bulk oxygen: NONE

Runway Information

Runway 4/22

Dimensions: 2256 x 60 ft. / 688 x 18 m
Surface: asphalt, in good condition
Weight bearing capacity: 
Single wheel: 7.0
Runway edge lights: medium intensity
RUNWAY 4  RUNWAY 22
Latitude: 37-13.796083N37-14.091083N
Longitude: 082-07.641217W082-07.358383W
Elevation: 2304.0 ft.2304.0 ft.
Traffic pattern: leftleft
Runway heading: 043 magnetic, 037 true223 magnetic, 217 true
Markings: basic, in fair conditionbasic, in fair condition
Visual slope indicator: panels that may or may not be lighted, on left
FADED BUT USABLE.
panels that may or may not be lighted, on left
FADED BUT USBL.
Touchdown point: yes, no lightsyes, no lights

Airport Ownership and Management from official FAA records

Ownership: Publicly-owned
Owner: TOWN OF GRUNDY
1103 PLAZA DRIVE, SUITE D
GRUNDY, VA 24614
Phone 276-935-2551
Manager: JAMES KEEN
1103 PLAZA DRIVE, SUITE D
GRUNDY, VA 24614
Phone 276-935-2551

Airport Operational Statistics

Aircraft based on the field: 12
Single engine airplanes: 11
Multi engine airplanes: 1
    
Aircraft operations: avg 89/week *
91% local general aviation
9% transient general aviation
* for 12-month period ending 31 July 2015

Additional Remarks

PAY PHONE AT AIRPORT 276-935-8022.
WILDLIFE INVOF ARPT.

Instrument Procedures

There are no published instrument procedures at KGDY.

Some nearby airports with instrument procedures:

KJFZ - Tazewell County Airport (19 nm SE)
KLNP - Lonesome Pine Airport (24 nm SW)
KEBD - Appalachian Regional Airport (27 nm N)
KPBX - Pike County Airport-Hatcher Field (29 nm NW)
KVJI - Virginia Highlands Airport (33 nm S)
 
Loc | Ops | Rwys | IFR | FBO | Links
Com | Nav | Svcs | Stats | Notes


 
Area around KGDY (Grundy Municipal Airport)
 
Road maps at: MapQuest Bing Google
 
Aerial photo
WARNING: Photo may not be current or correct
Aerial photo of KGDY (Grundy Municipal Airport)
Photo by Chris Berg
Photo taken 23-Jun-2013
looking northeast.

Do you have a better or more recent aerial photo of Grundy Municipal Airport that you would like to share? If so, please send us your photo.

 
Sectional chart

 
Airport distance calculator
Flying to Grundy Municipal Airport? Find the distance to fly.

From to KGDY

Sunrise and sunset
Times for 22-Jul-2018
 Local
(UTC-4)
 Zulu
(UTC)
Morning civil twilight05:5709:57
Sunrise06:2610:26
Sunset20:4400:44
Evening civil twilight21:1301:13

Current date and time
Zulu (UTC)  22-Jul-2018 20:45:19
Local (UTC-4)  22-Jul-2018 16:45:19
 
METAR
KJFZ 
19nm SE 
222035Z AUTO 28004KT 10SM -RA SCT007 BKN050 OVC110 20/19 A2984 RMK AO2 LTG DSNT NE AND S P0001 T01990185
KLNP 
25nm SW 
222035Z AUTO 19003KT 10SM SCT023 SCT049 BKN060 21/17 A2984 RMK AO2 LTG DSNT NE AND SE
KPBX 
29nm NW 
222035Z AUTO 18006KT 10SM SCT031 SCT041 26/18 A2975 RMK AO2 LTG DSNT NE E AND SW T02580180
KVJI 
34nm S 
222035Z AUTO 29006KT 10SM OVC010 21/19 A2983 RMK AO2 LTG DSNT NE T02120193
KI16 
35nm NE 
222035Z AUTO 10SM SCT023 SCT055 SCT095 24/19 A2982 RMK AO2 T02430188
TAF
KSJS 
40nm NW 
221740Z 2218/2318 VRB03KT 5SM -SHRA VCTS BKN020CB OVC030 TEMPO 2219/2223 2SM -SHRA OVC015 FM230100 VRB03KT 6SM BR VCSH SCT025 OVC050 FM230600 00000KT 3SM BR BKN015 FM231400 00000KT 5SM BR VCSH BKN020
KBLF 
44nm E 
221944Z 2220/2318 VRB03KT P6SM VCTS BKN040CB TEMPO 2220/2224 4SM -TSRA BKN020CB FM230000 VRB03KT P6SM VCSH BKN040 TEMPO 2300/2302 4SM -SHRA OVC007 FM230600 VRB03KT P6SM BKN025 FM230900 VRB03KT P6SM BKN003 FM231500 14007KT P6SM BKN015
KTRI 
47nm S 
221741Z 2218/2318 18003KT P6SM VCSH SCT027 BKN060 TEMPO 2218/2221 4SM -TSRA BR BKN020 OVC030CB FM230200 20004KT P6SM BKN035 FM230800 00000KT 3SM BR OVC015 TEMPO 2308/2311 1SM BR BKN007 FM231400 VRB02KT P6SM OVC025
NOTAMs
Click for the latest NOTAMs
NOTAMs are issued by the DoD/FAA and will open in a separate window not controlled by AirNav.

 

 
 

Aviation Businesses, Services, and Facilities

  
 Business Name 
 
 Contact 
 
 Services / Description 
 
Distance
 
Comments
  
Standard Aviation 276-935-5119
no information available

If you are affiliated with Standard Aviation and would like to show here your services, contact info, web link, logo, and more, click here
on airport  
   write
 

Would you like to see your business listed on this page?

 If your business provides an interesting product or service to pilots, flight crews, aircraft, or users of the Grundy Municipal Airport, you should consider listing it here.  To start the listing process, click on the button below
 
Add a business
 

Other Pages about Grundy Municipal Airport

www.flyvirginia.com/...
 
Update a link
 
Copyright © AirNav, LLC. All rights reserved. Privacy Policy  Contact